Arcadia, OH (44804)

4:13 AM EST on December 06, 2016 (GMT -0500)
Arcadia Ohio Williesweather | | Change Station

Elev 820 ft 41.12 °N, 83.52 °W | Updated 10 seconds ago

Clear
Clear
29.0 °F
Feels Like 24 °F
N
5.0
Wind Variable Wind from East
Gusts 5.0 mph

Today
High -- | Low -- °F
--% Chance of Precip.
Yesterday
High -- | Low -- °F
Precip. -- in
Pressure 29.91 in
Visibility 8.0 miles
Clouds Clear
Windchill 24 °F
Dew Point 27 °F
Humidity 92%
Rainfall 0.00 in
Snow Depth Not available.
7:45 AM 5:05 PM
Waxing Crescent, 40% visible
METAR KFDY 060853Z AUTO 08010KT 8SM CLR M01/M03 A2990 RMK AO2 SLP128 T10061033 56024
Pressure 29.91 in
Visibility 8.0 miles
Clouds Clear
Windchill 24 °F
Dew Point 27 °F
Humidity 92%
Rainfall 0.00 in
Snow Depth Not available.
7:45 AM 5:05 PM
Waxing Crescent, 40% visible
METAR KFDY 060853Z AUTO 08010KT 8SM CLR M01/M03 A2990 RMK AO2 SLP128 T10061033 56024

10-Day Weather Forecast

Almanac

Astronomy

Dec. 06, 2016 Rise Set
Actual Time
Civil Twilight
Nautical Twilight
Astronomical Twilight
Moon
Length of Visible Light
Length of Day
Tomorrow will be .
, % of the Moon is Illuminated

Today's Extremes

State Highs State Lows

Community

WunderPhotos

Upload Photos

1,955,935 photos uploaded!

WunderBlog® & News

Nearby

Air Quality

  Air Quality AQ Index Pollutant
Not available.

Snow Depth

Station Depth Elevation

Earthquake Activity

City Distance Mag. Time & Date
Minimum magnitude displayed is 2.5.

Coastal Water Temperatures

Place Temperature

Stations

Nearby Weather Stations

Station Location Temp. Windchill Dew Point Humidity Wind Precip. Elev Updated Type
                   

Watches & Warnings

There are currently no watches in effect.